Time;durP1;ratioP1;P1;durP2;ratioP2;P2;SDS_P1;SDS_P2;PMS_P1;PMS_P2;Temp;Humidity;BMP_temperature;BMP_pressure;BME280_temperature;BME280_humidity;BME280_pressure;Samples;Min_cycle;Max_cycle;Signal;HPM_P1;HPM_P2
2021/06/12 00:01:08;;;;;;;14.80;12.60;;;15.80;99.90;;;;;;5052910;28;20021;-74
2021/06/12 00:03:36;;;;;;;15.63;13.65;;;15.80;99.90;;;;;;5053138;28;20025;-73
2021/06/12 00:06:03;;;;;;;18.25;14.00;;;15.80;99.90;;;;;;5053180;28;20078;-73
2021/06/12 00:08:29;;;;;;;16.23;14.73;;;15.80;99.90;;;;;;5052908;28;20103;-71
2021/06/12 00:10:54;;;;;;;18.00;14.90;;;15.70;99.90;;;;;;5014204;28;20471;-72
2021/06/12 00:13:20;;;;;;;17.67;15.73;;;15.70;99.90;;;;;;5033198;28;20030;-73
2021/06/12 00:15:46;;;;;;;20.27;16.10;;;15.70;99.90;;;;;;5033150;28;20028;-73
2021/06/12 00:18:13;;;;;;;17.75;15.85;;;15.70;99.90;;;;;;5033141;28;20472;-73
2021/06/12 00:20:39;;;;;;;18.23;16.33;;;15.70;99.90;;;;;;5032184;28;20026;-73
2021/06/12 00:23:06;;;;;;;19.75;17.52;;;15.70;99.90;;;;;;5033136;28;20025;-73
2021/06/12 00:25:32;;;;;;;24.05;18.30;;;15.60;99.90;;;;;;5032952;28;20025;-73
2021/06/12 00:27:59;;;;;;;24.83;18.60;;;15.60;99.90;;;;;;5032819;28;20047;-73
2021/06/12 00:30:26;;;;;;;22.90;18.45;;;15.60;99.90;;;;;;5032538;28;20383;-73
2021/06/12 00:32:53;;;;;;;19.40;17.50;;;15.50;99.90;;;;;;5032864;28;20029;-73
2021/06/12 00:35:19;;;;;;;19.50;17.15;;;15.50;99.90;;;;;;5036134;28;20018;-73
2021/06/12 00:37:45;;;;;;;20.55;18.08;;;15.50;99.90;;;;;;5032432;28;20029;-73
2021/06/12 00:40:13;;;;;;;18.83;17.02;;;15.50;99.90;;;;;;5046861;28;20378;-73
2021/06/12 00:42:39;;;;;;;27.02;18.27;;;15.50;99.90;;;;;;5056244;28;20025;-73
2021/06/12 00:45:13;;;;;;;22.58;19.13;;;15.50;99.90;;;;;;5053086;28;20067;-73
2021/06/12 00:47:39;;;;;;;20.55;18.35;;;15.40;99.90;;;;;;5052554;28;20032;-73
2021/06/12 00:50:07;;;;;;;21.75;19.50;;;15.40;99.90;;;;;;5051814;28;20037;-73
2021/06/12 00:52:33;;;;;;;27.20;21.33;;;15.40;99.90;;;;;;5051776;28;20040;-72
2021/06/12 00:54:59;;;;;;;23.17;19.83;;;15.40;99.90;;;;;;5034361;28;20031;-74
2021/06/12 00:57:24;;;;;;;23.05;20.40;;;15.30;99.90;;;;;;5052409;28;20032;-73
2021/06/12 00:59:50;;;;;;;26.02;20.08;;;15.30;99.90;;;;;;5051527;28;20025;-73
2021/06/12 01:02:16;;;;;;;27.17;20.83;;;15.30;99.90;;;;;;5052227;28;20021;-72
2021/06/12 01:04:41;;;;;;;21.58;17.98;;;15.30;99.90;;;;;;5052137;28;20036;-74
2021/06/12 01:07:07;;;;;;;23.00;20.40;;;15.20;99.90;;;;;;5051543;28;20045;-74
2021/06/12 01:09:33;;;;;;;21.30;19.10;;;15.20;99.90;;;;;;5051417;28;20063;-74
2021/06/12 01:12:26;;;;;;;21.23;19.08;;;15.10;99.90;;;;;;5052044;28;20479;-73
2021/06/12 01:14:58;;;;;;;20.90;18.10;;;15.10;99.90;;;;;;5051885;28;20025;-73
2021/06/12 01:17:27;;;;;;;21.27;18.85;;;15.10;99.90;;;;;;5051493;28;20625;-72
2021/06/12 01:20:11;;;;;;;24.23;18.08;;;15.10;99.90;;;;;;5051295;28;20021;-73
2021/06/12 01:22:42;;;;;;;23.20;20.25;;;15.10;99.90;;;;;;5051683;28;20032;-73
2021/06/12 01:25:26;;;;;;;25.75;21.52;;;15.10;99.90;;;;;;5051438;28;20021;-74
2021/06/12 01:28:00;;;;;;;23.23;20.40;;;15.10;99.90;;;;;;5051430;28;20029;-73
2021/06/12 01:30:34;;;;;;;22.58;18.35;;;15.00;99.90;;;;;;5052237;28;20078;-73
2021/06/12 01:33:05;;;;;;;20.50;18.42;;;14.90;99.90;;;;;;5034972;28;20029;-73
2021/06/12 01:35:35;;;;;;;22.15;19.92;;;14.90;99.90;;;;;;5051748;28;20048;-71
2021/06/12 01:38:04;;;;;;;24.90;20.23;;;14.90;99.90;;;;;;5033360;28;20021;-72
2021/06/12 01:40:32;;;;;;;23.88;20.58;;;14.90;99.90;;;;;;5050943;28;20036;-73
2021/06/12 01:42:59;;;;;;;24.92;21.20;;;14.90;99.90;;;;;;5051489;28;20024;-74
2021/06/12 01:45:25;;;;;;;29.90;23.08;;;14.90;99.90;;;;;;5051520;28;20029;-73
2021/06/12 01:47:52;;;;;;;28.20;23.88;;;14.90;99.90;;;;;;5051500;28;20044;-73
2021/06/12 01:50:20;;;;;;;33.42;23.85;;;14.80;99.90;;;;;;5050562;28;20025;-74
2021/06/12 01:52:47;;;;;;;26.67;23.88;;;14.80;99.90;;;;;;5050854;28;20037;-74
2021/06/12 01:55:15;;;;;;;27.85;24.77;;;14.80;99.90;;;;;;5030911;28;20474;-74
2021/06/12 01:57:46;;;;;;;24.98;22.38;;;14.80;99.90;;;;;;5051207;28;20507;-74
2021/06/12 02:00:13;;;;;;;29.08;25.38;;;14.70;99.90;;;;;;5050547;28;20394;-74
2021/06/12 02:02:41;;;;;;;32.95;26.48;;;14.70;99.90;;;;;;5050928;28;20095;-72
2021/06/12 02:05:09;;;;;;;29.45;25.50;;;14.70;99.90;;;;;;5050116;28;20024;-72
2021/06/12 02:07:36;;;;;;;29.65;25.33;;;14.70;99.90;;;;;;5049963;28;20032;-74
2021/06/12 02:10:02;;;;;;;27.30;24.50;;;14.70;99.90;;;;;;5050747;28;20025;-72
2021/06/12 02:12:28;;;;;;;28.35;23.38;;;14.70;99.90;;;;;;5051253;28;20070;-73
2021/06/12 02:14:59;;;;;;;30.77;23.73;;;14.70;99.90;;;;;;5050918;28;20486;-74
2021/06/12 02:17:26;;;;;;;26.25;23.48;;;14.70;99.90;;;;;;5051455;28;20021;-74
2021/06/12 02:19:51;;;;;;;29.40;23.52;;;14.60;99.90;;;;;;5050226;28;20025;-73
2021/06/12 02:22:18;;;;;;;27.17;24.20;;;14.70;99.90;;;;;;5050935;28;20033;-72
2021/06/12 02:24:44;;;;;;;26.33;23.55;;;14.60;99.90;;;;;;5051169;28;20032;-73
2021/06/12 02:27:11;;;;;;;23.92;21.42;;;14.70;99.90;;;;;;5050717;28;20025;-74
2021/06/12 02:29:38;;;;;;;27.10;22.48;;;14.60;99.90;;;;;;5031481;28;20040;-71
2021/06/12 02:32:05;;;;;;;26.63;22.55;;;14.70;99.90;;;;;;5051104;28;20057;-74
2021/06/12 02:34:33;;;;;;;26.35;23.15;;;14.60;99.90;;;;;;5032724;28;20433;-73
2021/06/12 02:36:59;;;;;;;27.40;23.00;;;14.60;99.90;;;;;;5050440;28;20025;-72
2021/06/12 02:39:25;;;;;;;27.20;24.35;;;14.60;99.90;;;;;;5048985;28;20031;-72
2021/06/12 02:41:51;;;;;;;30.05;25.42;;;14.60;99.90;;;;;;5050912;28;20018;-72
2021/06/12 02:44:16;;;;;;;26.75;23.90;;;14.50;99.90;;;;;;5051080;28;20090;-73
2021/06/12 02:46:44;;;;;;;31.02;23.42;;;14.50;99.90;;;;;;5050904;28;20710;-72
2021/06/12 02:49:11;;;;;;;25.38;22.67;;;14.50;99.90;;;;;;5050804;28;20068;-72
2021/06/12 02:51:48;;;;;;;25.45;22.70;;;14.50;99.90;;;;;;5049642;28;20029;-73
2021/06/12 02:54:20;;;;;;;25.08;22.50;;;14.60;99.90;;;;;;5050008;28;20024;-73
2021/06/12 02:56:47;;;;;;;31.38;23.95;;;14.50;99.90;;;;;;5051347;28;20024;-73
2021/06/12 02:59:17;;;;;;;29.30;24.58;;;14.50;99.90;;;;;;5057322;28;20045;-72
2021/06/12 03:01:45;;;;;;;28.60;24.73;;;14.50;99.90;;;;;;5067173;28;20021;-73
2021/06/12 03:04:14;;;;;;;26.55;23.65;;;14.50;99.90;;;;;;5066401;28;20025;-73
2021/06/12 03:06:41;;;;;;;26.88;23.60;;;14.40;99.90;;;;;;5061943;28;20025;-73
2021/06/12 03:09:07;;;;;;;29.58;24.05;;;14.30;99.90;;;;;;5050905;28;20475;-72
2021/06/12 03:11:34;;;;;;;29.92;25.83;;;14.30;99.90;;;;;;5052987;28;20048;-73
2021/06/12 03:14:01;;;;;;;30.73;25.50;;;14.30;99.90;;;;;;5057120;28;20064;-73
2021/06/12 03:16:27;;;;;;;26.85;23.42;;;14.20;99.90;;;;;;5057194;28;20033;-73
2021/06/12 03:18:53;;;;;;;33.08;25.13;;;14.30;99.90;;;;;;5036239;28;20027;-73
2021/06/12 03:21:24;;;;;;;27.90;24.90;;;14.30;99.90;;;;;;5053424;28;20025;-73
2021/06/12 03:23:52;;;;;;;27.95;24.75;;;14.30;99.90;;;;;;5051540;28;20018;-73
2021/06/12 03:26:19;;;;;;;30.70;25.27;;;14.20;99.90;;;;;;5034726;28;20018;-73
2021/06/12 03:28:45;;;;;;;27.42;24.45;;;14.20;99.90;;;;;;5034972;28;20582;-73
2021/06/12 03:31:11;;;;;;;30.50;25.15;;;14.20;99.90;;;;;;5033482;28;20033;-73
2021/06/12 03:33:37;;;;;;;28.15;25.23;;;14.20;99.90;;;;;;5033856;28;20029;-73
2021/06/12 03:36:03;;;;;;;28.35;24.13;;;14.20;99.90;;;;;;5033911;28;20156;-72
2021/06/12 03:38:30;;;;;;;30.48;24.95;;;14.20;99.90;;;;;;5034486;28;20104;-72
2021/06/12 03:40:57;;;;;;;28.73;25.63;;;14.10;99.90;;;;;;5033844;28;20021;-72
2021/06/12 03:43:24;;;;;;;29.20;25.33;;;14.20;99.90;;;;;;5034327;28;20029;-72
2021/06/12 03:45:54;;;;;;;36.10;26.20;;;14.20;99.90;;;;;;5038014;28;20032;-72
2021/06/12 03:48:21;;;;;;;30.73;25.95;;;14.20;99.90;;;;;;5057285;28;20044;-72
2021/06/12 03:50:49;;;;;;;35.83;27.15;;;14.20;99.90;;;;;;5051705;28;20104;-72
2021/06/12 03:53:15;;;;;;;30.73;24.73;;;14.20;99.90;;;;;;5034207;28;20022;-73
2021/06/12 03:55:41;;;;;;;31.20;25.05;;;14.20;99.90;;;;;;5038714;28;20411;-73
2021/06/12 03:58:07;;;;;;;29.17;24.92;;;14.10;99.90;;;;;;5033811;28;20013;-73
2021/06/12 04:00:34;;;;;;;30.20;24.65;;;14.20;99.90;;;;;;5032882;28;20025;-73
2021/06/12 04:02:59;;;;;;;29.80;24.48;;;14.20;99.90;;;;;;5033688;28;20502;-73
2021/06/12 04:05:25;;;;;;;29.25;26.15;;;14.30;99.90;;;;;;5033637;28;20033;-73
2021/06/12 04:07:51;;;;;;;30.65;26.35;;;14.30;99.90;;;;;;5073189;22;20045;-75
2021/06/12 04:10:17;;;;;;;29.65;24.45;;;14.30;99.90;;;;;;5052457;28;20425;-76
2021/06/12 04:12:42;;;;;;;28.88;25.88;;;14.30;99.90;;;;;;5052469;28;20017;-77
2021/06/12 04:15:08;;;;;;;32.42;25.90;;;14.30;99.90;;;;;;5053552;28;20025;-76
2021/06/12 04:17:34;;;;;;;30.27;26.10;;;14.40;99.90;;;;;;5053820;28;20029;-77
2021/06/12 04:20:00;;;;;;;30.55;27.30;;;14.40;99.90;;;;;;5052434;28;20079;-77
2021/06/12 04:22:27;;;;;;;30.27;26.95;;;14.40;99.90;;;;;;5053415;28;20103;-76
2021/06/12 04:24:53;;;;;;;29.38;26.35;;;14.40;99.90;;;;;;5053181;28;20500;-76
2021/06/12 04:27:18;;;;;;;32.38;26.80;;;14.40;99.90;;;;;;5052148;28;20039;-76
2021/06/12 04:29:44;;;;;;;32.00;26.88;;;14.30;99.90;;;;;;5052086;28;20033;-75
2021/06/12 04:32:10;;;;;;;28.73;25.70;;;14.30;99.90;;;;;;5053121;28;20053;-75
2021/06/12 04:34:35;;;;;;;32.42;28.73;;;14.30;99.90;;;;;;5052693;28;20061;-74
2021/06/12 04:37:02;;;;;;;29.60;26.38;;;14.40;99.90;;;;;;5052687;28;20025;-76
2021/06/12 04:39:29;;;;;;;29.20;26.08;;;14.50;99.90;;;;;;5054422;28;20048;-77
2021/06/12 04:41:56;;;;;;;28.40;24.77;;;14.40;99.90;;;;;;5053974;28;20028;-77
2021/06/12 04:44:21;;;;;;;31.77;25.58;;;14.40;99.90;;;;;;5053741;28;20029;-76
2021/06/12 04:46:47;;;;;;;29.85;25.20;;;14.40;99.90;;;;;;5051653;28;20035;-76
2021/06/12 04:49:13;;;;;;;28.45;25.52;;;14.40;99.90;;;;;;5051355;28;20021;-76
2021/06/12 04:51:38;;;;;;;28.95;25.85;;;14.50;99.90;;;;;;5050836;28;20116;-76
2021/06/12 04:54:04;;;;;;;26.08;23.50;;;14.60;99.90;;;;;;5050735;28;20125;-75
2021/06/12 04:56:30;;;;;;;32.42;23.17;;;14.50;99.90;;;;;;5046589;28;20618;-74
2021/06/12 04:58:56;;;;;;;25.38;22.88;;;14.60;99.90;;;;;;5048865;28;20621;-76
2021/06/12 05:01:21;;;;;;;26.98;24.13;;;14.70;99.90;;;;;;5051031;28;20024;-74
2021/06/12 05:03:47;;;;;;;29.75;25.25;;;14.90;99.90;;;;;;5051792;28;20376;-76
2021/06/12 05:06:13;;;;;;;26.90;23.75;;;14.90;99.90;;;;;;5050487;28;20049;-75
2021/06/12 05:08:38;;;;;;;27.15;24.02;;;15.00;99.90;;;;;;5051224;28;20040;-74
2021/06/12 05:11:04;;;;;;;26.90;22.70;;;15.20;99.90;;;;;;5052483;28;20104;-75
2021/06/12 05:13:32;;;;;;;25.15;22.50;;;15.40;99.90;;;;;;5052509;28;20029;-75
2021/06/12 05:15:58;;;;;;;21.67;19.58;;;15.50;99.90;;;;;;5054240;28;20025;-75
2021/06/12 05:18:31;;;;;;;20.48;17.92;;;15.50;99.90;;;;;;5052319;28;20116;-74
2021/06/12 05:20:57;;;;;;;17.10;15.35;;;15.50;99.90;;;;;;5030612;28;20427;-73
2021/06/12 05:23:23;;;;;;;19.17;15.32;;;15.50;99.90;;;;;;5032630;28;20037;-73
2021/06/12 05:25:49;;;;;;;15.38;13.80;;;15.50;99.90;;;;;;5032867;28;20391;-73
2021/06/12 05:28:15;;;;;;;17.67;15.10;;;15.50;99.90;;;;;;5032881;28;20034;-74
2021/06/12 05:30:40;;;;;;;16.65;14.90;;;15.40;99.90;;;;;;5032235;28;20026;-74
2021/06/12 05:33:06;;;;;;;20.38;14.50;;;15.60;99.90;;;;;;5032298;28;20025;-74
2021/06/12 05:35:31;;;;;;;18.90;13.88;;;15.60;99.90;;;;;;5032942;28;20021;-75
2021/06/12 05:37:57;;;;;;;15.10;13.70;;;15.60;99.90;;;;;;5031980;28;20040;-73
2021/06/12 05:40:23;;;;;;;19.00;14.90;;;15.60;99.90;;;;;;5031434;28;20029;-75
2021/06/12 05:42:48;;;;;;;15.95;14.35;;;15.60;99.90;;;;;;5030494;28;20022;-73
2021/06/12 05:45:14;;;;;;;15.73;14.20;;;15.60;99.90;;;;;;5030807;28;20032;-75
2021/06/12 05:47:40;;;;;;;14.63;12.82;;;15.70;99.90;;;;;;5032108;28;20068;-73
2021/06/12 05:50:06;;;;;;;15.73;14.15;;;15.90;99.90;;;;;;5044745;28;20029;-73
2021/06/12 05:52:32;;;;;;;20.70;14.02;;;16.00;99.90;;;;;;5051788;28;20103;-74
2021/06/12 05:54:58;;;;;;;14.63;13.15;;;16.10;99.90;;;;;;5052506;28;20147;-73
2021/06/12 05:57:23;;;;;;;16.50;14.00;;;16.10;99.90;;;;;;5052251;28;20534;-74
2021/06/12 05:59:49;;;;;;;14.52;13.20;;;16.40;99.90;;;;;;5051521;28;20107;-74
2021/06/12 06:02:14;;;;;;;15.52;13.32;;;16.50;99.90;;;;;;5052360;28;20017;-73
2021/06/12 06:04:40;;;;;;;13.73;12.13;;;16.60;99.90;;;;;;5071538;28;20029;-71
2021/06/12 06:07:06;;;;;;;14.75;12.82;;;16.60;99.90;;;;;;5051193;28;20037;-76
2021/06/12 06:09:31;;;;;;;12.77;11.63;;;16.70;99.90;;;;;;5055136;28;20029;-76
2021/06/12 06:11:57;;;;;;;14.02;12.50;;;17.00;99.90;;;;;;5053102;28;20024;-77
2021/06/12 06:14:23;;;;;;;15.63;12.15;;;17.00;99.90;;;;;;5053129;28;20033;-77
2021/06/12 06:16:48;;;;;;;13.48;11.20;;;17.10;99.90;;;;;;5051637;28;20036;-76
2021/06/12 06:19:15;;;;;;;13.73;11.65;;;17.20;99.90;;;;;;5053184;28;20025;-77
2021/06/12 06:21:41;;;;;;;13.43;12.18;;;17.20;99.90;;;;;;5053623;28;20025;-79
2021/06/12 06:24:07;;;;;;;13.43;11.77;;;17.40;99.90;;;;;;5051774;28;20035;-76
2021/06/12 06:26:33;;;;;;;13.50;11.43;;;17.50;99.90;;;;;;5052530;28;20110;-76
2021/06/12 06:28:58;;;;;;;13.27;11.88;;;17.60;99.90;;;;;;5054260;28;20017;-77
2021/06/12 06:31:24;;;;;;;11.85;10.73;;;17.80;99.90;;;;;;5053204;28;20021;-77
2021/06/12 06:33:50;;;;;;;11.55;10.45;;;17.90;99.90;;;;;;5053389;28;20029;-76
2021/06/12 06:36:16;;;;;;;11.00;10.00;;;18.00;99.90;;;;;;5066220;28;20028;-79
2021/06/12 06:38:41;;;;;;;14.48;10.75;;;18.10;99.90;;;;;;5073924;28;20060;-80
2021/06/12 06:41:08;;;;;;;10.45;9.57;;;18.20;99.90;;;;;;5062474;28;20052;-80
2021/06/12 06:43:35;;;;;;;11.93;9.95;;;18.30;99.90;;;;;;5056508;28;20025;-77
2021/06/12 06:46:01;;;;;;;11.40;10.18;;;18.40;99.90;;;;;;5056195;28;20045;-78
2021/06/12 06:48:27;;;;;;;10.23;9.23;;;18.50;99.90;;;;;;5051971;28;20033;-77
2021/06/12 06:50:53;;;;;;;14.15;10.13;;;18.60;99.90;;;;;;5054857;28;20104;-78
2021/06/12 06:53:19;;;;;;;10.55;9.48;;;18.70;99.90;;;;;;5051000;28;20021;-77
2021/06/12 06:55:45;;;;;;;10.57;9.10;;;18.70;99.90;;;;;;5038345;28;20364;-78
2021/06/12 06:58:11;;;;;;;9.98;9.07;;;18.90;99.90;;;;;;5037666;28;20667;-77
2021/06/12 07:00:36;;;;;;;10.05;9.00;;;19.00;99.90;;;;;;5054873;28;20028;-77
2021/06/12 07:03:03;;;;;;;9.70;8.70;;;19.20;99.90;;;;;;5054299;28;20107;-77
2021/06/12 07:05:28;;;;;;;8.35;7.63;;;19.30;99.90;;;;;;5055454;28;20021;-75
2021/06/12 07:07:54;;;;;;;10.95;8.43;;;19.40;99.90;;;;;;5053968;28;20065;-71
2021/06/12 07:10:20;;;;;;;11.32;7.50;;;19.80;99.90;;;;;;5054533;28;20093;-72
2021/06/12 07:12:46;;;;;;;8.93;7.93;;;19.90;99.90;;;;;;5055225;28;20525;-74
2021/06/12 07:15:12;;;;;;;8.27;7.57;;;20.10;99.90;;;;;;5055801;28;20502;-71
2021/06/12 07:17:38;;;;;;;10.45;7.60;;;20.20;99.90;;;;;;5053970;28;20112;-73
2021/06/12 07:20:06;;;;;;;7.60;6.93;;;20.40;99.90;;;;;;5054279;28;20040;-72
2021/06/12 07:22:32;;;;;;;8.43;7.00;;;20.70;99.90;;;;;;5054671;28;20025;-71
2021/06/12 07:24:58;;;;;;;9.77;7.32;;;20.80;99.90;;;;;;5055994;28;20021;-71
2021/06/12 07:27:24;;;;;;;8.43;7.18;;;20.80;99.90;;;;;;5053786;28;20134;-73
2021/06/12 07:29:49;;;;;;;8.32;7.55;;;20.70;99.90;;;;;;5061514;28;20024;-75
2021/06/12 07:32:15;;;;;;;7.63;7.03;;;20.80;99.90;;;;;;5074124;28;20024;-77
2021/06/12 07:34:41;;;;;;;9.02;7.35;;;21.00;99.90;;;;;;5073258;28;20028;-75
2021/06/12 07:37:06;;;;;;;9.98;6.53;;;21.30;99.90;;;;;;5058979;28;20538;-76
2021/06/12 07:39:32;;;;;;;11.27;7.18;;;21.30;99.90;;;;;;5052148;28;20196;-75
2021/06/12 07:41:58;;;;;;;8.13;7.00;;;21.40;99.90;;;;;;5058940;28;20029;-75
2021/06/12 07:44:24;;;;;;;9.45;6.78;;;21.80;99.90;;;;;;5058935;28;20398;-74
2021/06/12 07:46:49;;;;;;;8.27;7.32;;;21.60;99.90;;;;;;5057194;28;20033;-74
2021/06/12 07:49:15;;;;;;;7.57;6.85;;;21.70;99.90;;;;;;5056794;28;20064;-74
2021/06/12 07:51:42;;;;;;;12.30;7.38;;;21.70;99.90;;;;;;5054020;28;20071;-74
2021/06/12 07:54:08;;;;;;;6.97;6.38;;;21.90;99.90;;;;;;5055884;28;20546;-73
2021/06/12 07:56:34;;;;;;;8.57;6.35;;;22.10;99.90;;;;;;5060137;28;20040;-75
2021/06/12 07:59:00;;;;;;;6.68;6.10;;;22.50;99.90;;;;;;5069182;28;20017;-74
2021/06/12 08:01:26;;;;;;;8.52;7.03;;;22.60;99.90;;;;;;5063371;28;20049;-74
2021/06/12 08:03:52;;;;;;;6.93;6.35;;;22.60;99.90;;;;;;5067177;28;20089;-72
2021/06/12 08:06:18;;;;;;;7.13;6.43;;;22.80;99.90;;;;;;5056442;28;20075;-75
2021/06/12 08:08:44;;;;;;;8.38;6.75;;;23.00;99.90;;;;;;5057858;28;20521;-74
2021/06/12 08:11:10;;;;;;;6.95;6.30;;;23.10;99.90;;;;;;5055859;28;20024;-73
2021/06/12 08:13:36;;;;;;;9.73;6.55;;;23.10;99.90;;;;;;5053755;28;20494;-74
2021/06/12 08:16:03;;;;;;;8.15;6.07;;;23.40;99.90;;;;;;5061828;28;20029;-72
2021/06/12 08:18:29;;;;;;;6.30;5.80;;;23.50;99.90;;;;;;5063200;28;20079;-74
2021/06/12 08:20:55;;;;;;;9.23;6.30;;;23.50;99.90;;;;;;5059247;28;20022;-78
2021/06/12 08:23:21;;;;;;;6.10;5.63;;;23.30;99.90;;;;;;5055104;28;20032;-75
2021/06/12 08:25:47;;;;;;;6.93;6.03;;;23.60;99.90;;;;;;5054480;28;20053;-73
2021/06/12 08:28:13;;;;;;;7.47;5.95;;;24.10;99.90;;;;;;5058183;28;20032;-74
2021/06/12 08:30:39;;;;;;;6.72;6.22;;;24.30;99.90;;;;;;5054900;28;20025;-73
2021/06/12 08:33:09;;;;;;;14.00;6.22;;;24.30;99.90;;;;;;5054761;28;20040;-73
2021/06/12 08:35:36;;;;;;;10.40;6.00;;;24.30;99.90;;;;;;5054033;28;20032;-75
2021/06/12 08:38:02;;;;;;;6.85;6.28;;;24.30;99.90;;;;;;5057280;28;20021;-72
2021/06/12 08:40:29;;;;;;;7.03;6.32;;;24.30;99.90;;;;;;5063318;28;20017;-74
2021/06/12 08:42:55;;;;;;;5.43;5.03;;;24.30;99.90;;;;;;5064153;28;20082;-73
2021/06/12 08:45:23;;;;;;;5.85;5.13;;;24.60;99.90;;;;;;5061769;28;20029;-72
2021/06/12 08:47:49;;;;;;;6.03;5.13;;;25.40;99.90;;;;;;5058190;28;20025;-73
2021/06/12 08:50:16;;;;;;;5.72;5.28;;;25.70;99.90;;;;;;5054957;28;20498;-73
2021/06/12 08:52:42;;;;;;;4.82;4.45;;;25.90;99.90;;;;;;5052411;28;20086;-72
2021/06/12 08:55:10;;;;;;;4.75;4.43;;;25.50;99.90;;;;;;5056218;28;20356;-71
2021/06/12 08:57:37;;;;;;;4.32;3.90;;;25.90;99.90;;;;;;5052703;28;20028;-71
2021/06/12 09:00:05;;;;;;;4.22;3.83;;;26.30;99.90;;;;;;5051707;28;20025;-74
2021/06/12 09:03:06;;;;;;;5.57;4.55;;;26.80;99.90;;;;;;5059332;28;20493;-75
2021/06/12 09:05:42;;;;;;;4.10;3.80;;;27.80;99.90;;;;;;5051809;28;20676;-71
2021/06/12 09:08:09;;;;;;;4.07;3.67;;;27.20;99.90;;;;;;5059456;28;20029;-72
2021/06/12 09:10:44;;;;;;;5.20;4.07;;;26.80;99.90;;;;;;5054639;28;20036;-72
2021/06/12 09:13:09;;;;;;;4.25;3.83;;;26.80;99.90;;;;;;5052179;28;20162;-71
2021/06/12 09:15:35;;;;;;;3.53;3.25;;;27.60;99.90;;;;;;5051859;28;20068;-71
2021/06/12 09:18:01;;;;;;;3.67;3.45;;;28.60;99.90;;;;;;5050955;28;20052;-70
2021/06/12 09:20:27;;;;;;;4.45;3.10;;;27.80;99.90;;;;;;5050824;28;20096;-72
2021/06/12 09:23:18;;;;;;;4.18;3.50;;;28.10;99.90;;;;;;5051353;28;20056;-71
2021/06/12 09:25:48;;;;;;;3.97;3.60;;;27.50;99.90;;;;;;5051920;28;20116;-71
2021/06/12 09:28:15;;;;;;;5.40;4.05;;;26.90;99.90;;;;;;5050388;28;20017;-72
2021/06/12 09:30:42;;;;;;;4.05;3.75;;;26.30;99.90;;;;;;5058544;28;20028;-70
2021/06/12 09:33:08;;;;;;;4.00;3.70;;;26.30;99.90;;;;;;5065113;28;20031;-71
2021/06/12 09:35:39;;;;;;;4.15;3.85;;;26.00;99.90;;;;;;5053922;28;20028;-71
2021/06/12 09:38:23;;;;;;;4.18;3.88;;;25.90;99.90;;;;;;5046412;28;20028;-72
2021/06/12 09:40:49;;;;;;;4.97;3.58;;;26.20;99.90;;;;;;5050174;28;20060;-70
2021/06/12 09:43:29;;;;;;;4.80;3.25;;;27.30;99.90;;;;;;5051358;28;20496;-71
2021/06/12 09:45:55;;;;;;;3.47;3.28;;;28.10;99.90;;;;;;5049702;28;20040;-71
2021/06/12 09:48:22;;;;;;;5.70;3.20;;;28.30;99.90;;;;;;5058357;28;20028;-71
2021/06/12 09:51:07;;;;;;;3.20;3.05;;;28.80;99.80;;;;;;5067226;28;20036;-72
2021/06/12 09:53:38;;;;;;;2.97;2.72;;;29.00;97.20;;;;;;5050220;28;20120;-70
2021/06/12 09:56:12;;;;;;;5.80;3.05;;;28.20;98.00;;;;;;5054236;28;20017;-72
2021/06/12 09:58:37;;;;;;;4.60;2.95;;;28.40;97.70;;;;;;5060847;28;20089;-71
2021/06/12 10:01:11;;;;;;;6.10;2.92;;;27.80;98.70;;;;;;5054306;28;20546;-70
2021/06/12 10:03:37;;;;;;;3.30;3.00;;;27.50;98.70;;;;;;5051225;28;20070;-71
2021/06/12 10:06:09;;;;;;;4.38;2.78;;;27.10;98.80;;;;;;5051305;28;20522;-70
2021/06/12 10:08:35;;;;;;;2.65;2.45;;;27.40;98.80;;;;;;5140370;22;20032;-76
2021/06/12 10:11:01;;;;;;;2.10;2.00;;;27.90;97.80;;;;;;5070773;28;20293;-75
2021/06/12 10:13:28;;;;;;;2.35;2.13;;;28.30;95.20;;;;;;5070911;28;20136;-76
2021/06/12 10:15:54;;;;;;;4.07;2.30;;;28.90;95.20;;;;;;5050947;28;20025;-75
2021/06/12 10:18:21;;;;;;;2.22;2.03;;;28.90;94.50;;;;;;5051298;28;20027;-75
2021/06/12 10:20:48;;;;;;;4.97;1.70;;;29.20;95.50;;;;;;5050308;28;20032;-74
2021/06/12 10:23:15;;;;;;;4.82;1.92;;;30.10;92.70;;;;;;5066041;28;20024;-74
2021/06/12 10:25:41;;;;;;;4.13;2.13;;;30.10;91.10;;;;;;5049484;28;20032;-73
2021/06/12 10:28:08;;;;;;;1.98;1.88;;;29.60;92.70;;;;;;5053739;28;20025;-74
2021/06/12 10:30:34;;;;;;;2.92;2.00;;;29.90;92.50;;;;;;5054320;28;20033;-75
2021/06/12 10:33:01;;;;;;;1.88;1.77;;;29.70;92.10;;;;;;5063369;28;20041;-71
2021/06/12 10:35:28;;;;;;;1.70;1.60;;;29.70;91.50;;;;;;5062321;28;20013;-72
2021/06/12 10:37:55;;;;;;;2.13;1.92;;;29.40;92.10;;;;;;5058985;28;20017;-72
2021/06/12 10:40:47;;;;;;;2.83;1.85;;;29.10;93.50;;;;;;5054468;28;20071;-74
2021/06/12 10:43:15;;;;;;;;;;;29.70;93.60;;;;;;5055179;28;20078;-73
2021/06/12 10:45:43;;;;;;;5.35;2.22;;;29.90;91.80;;;;;;5073373;28;19904;-75
2021/06/12 10:48:09;;;;;;;4.65;2.08;;;29.80;92.00;;;;;;5074930;28;20104;-74
2021/06/12 10:50:44;;;;;;;2.05;1.85;;;29.80;91.10;;;;;;5074305;28;20021;-75
2021/06/12 10:53:37;;;;;;;2.58;2.13;;;29.50;91.50;;;;;;5074684;28;20024;-74
2021/06/12 10:56:07;;;;;;;2.17;1.63;;;29.60;91.40;;;;;;5075009;28;20021;-74
2021/06/12 10:58:33;;;;;;;4.53;1.67;;;30.10;91.00;;;;;;5074288;28;20421;-73
2021/06/12 11:01:15;;;;;;;3.33;1.85;;;30.10;90.80;;;;;;5067100;28;20025;-74
2021/06/12 11:03:56;;;;;;;1.50;1.40;;;29.90;91.90;;;;;;5054532;28;20533;-74
2021/06/12 11:06:49;;;;;;;5.13;1.50;;;29.80;90.10;;;;;;5062910;28;20446;-73
2021/06/12 11:09:15;;;;;;;1.90;1.80;;;30.20;89.70;;;;;;5085863;28;20036;-73
2021/06/12 11:11:46;;;;;;;2.92;1.58;;;30.30;89.70;;;;;;5095242;28;20164;-72
2021/06/12 11:14:21;;;;;;;2.25;1.50;;;30.00;87.00;;;;;;5095128;28;20028;-73
2021/06/12 11:17:08;;;;;;;4.72;1.60;;;30.10;89.30;;;;;;5094765;28;20012;-73
2021/06/12 11:19:33;;;;;;;2.30;1.40;;;30.50;84.00;;;;;;5094780;28;20028;-72
2021/06/12 11:22:27;;;;;;;4.65;1.58;;;30.40;85.10;;;;;;5095242;28;20089;-73
2021/06/12 11:24:55;;;;;;;6.80;1.58;;;30.40;84.80;;;;;;5078472;28;20031;-72
2021/06/12 11:27:32;;;;;;;1.80;1.70;;;30.50;80.90;;;;;;5116815;28;20044;-69
2021/06/12 11:30:19;;;;;;;2.65;1.50;;;30.80;83.30;;;;;;5095096;28;20482;-70
2021/06/12 11:32:49;;;;;;;3.53;1.70;;;31.10;83.30;;;;;;5094522;28;20020;-70
2021/06/12 11:35:47;;;;;;;2.38;1.60;;;30.50;85.40;;;;;;5093995;28;20024;-70
2021/06/12 11:38:34;;;;;;;2.85;1.58;;;30.40;83.10;;;;;;5073294;28;20027;-67
2021/06/12 11:41:10;;;;;;;3.20;1.60;;;30.20;83.40;;;;;;5072779;28;20044;-69
2021/06/12 11:43:42;;;;;;;1.83;1.73;;;30.70;85.60;;;;;;5073199;28;20024;-70
2021/06/12 11:46:10;;;;;;;;;;;30.50;84.80;;;;;;5073470;28;20505;-70
2021/06/12 11:48:57;;;;;;;2.78;1.58;;;30.00;84.80;;;;;;5073708;28;20636;-70
2021/06/12 11:51:31;;;;;;;1.98;1.40;;;30.20;83.40;;;;;;5073107;28;20039;-72
2021/06/12 11:54:13;;;;;;;2.15;1.65;;;30.70;83.10;;;;;;5073875;28;20104;-71
2021/06/12 11:56:55;;;;;;;1.45;1.35;;;30.50;79.60;;;;;;5075186;28;20063;-72
2021/06/12 11:59:23;;;;;;;1.33;1.27;;;30.50;78.50;;;;;;5093660;28;20543;-72
2021/06/12 12:02:00;;;;;;;1.20;0.95;;;30.00;77.80;;;;;;5093977;28;20366;-72
2021/06/12 12:04:33;;;;;;;1.20;1.10;;;29.40;79.00;;;;;;5093864;28;20024;-72
2021/06/12 12:06:59;;;;;;;2.78;1.20;;;29.60;77.30;;;;;;5095215;28;20020;-71
2021/06/12 12:09:30;;;;;;;2.75;1.55;;;29.80;79.90;;;;;;5095150;28;20072;-72
2021/06/12 12:12:08;;;;;;;1.10;1.00;;;30.00;81.30;;;;;;5101007;28;20024;-72
2021/06/12 12:14:39;;;;;;;1.17;1.17;;;29.90;77.50;;;;;;5101283;28;20074;-71
2021/06/12 12:17:06;;;;;;;;;;;29.50;79.90;;;;;;5101383;28;20090;-71
2021/06/12 12:19:32;;;;;;;1.63;1.52;;;29.50;80.20;;;;;;5095283;28;20376;-70
2021/06/12 12:22:00;;;;;;;4.90;1.23;;;29.80;78.30;;;;;;5077147;28;20097;-71
2021/06/12 12:24:33;;;;;;;2.58;1.25;;;30.00;80.30;;;;;;5079307;28;20028;-71
2021/06/12 12:27:08;;;;;;;1.00;1.00;;;30.50;79.90;;;;;;5085000;28;20540;-71
2021/06/12 12:29:39;;;;;;;1.30;1.20;;;30.70;79.40;;;;;;5094148;28;20024;-71
2021/06/12 12:32:06;;;;;;;1.65;1.55;;;29.80;77.10;;;;;;5093753;28;20031;-70
2021/06/12 12:34:39;;;;;;;3.08;1.10;;;29.80;77.60;;;;;;5092756;28;20028;-71
2021/06/12 12:37:07;;;;;;;1.30;1.20;;;30.00;77.30;;;;;;5093442;28;20021;-72
2021/06/12 12:39:46;;;;;;;1.52;1.33;;;29.90;77.50;;;;;;5074646;28;20028;-70
2021/06/12 12:42:21;;;;;;;1.50;1.27;;;29.80;76.90;;;;;;5093297;28;20020;-70